Time;durP1;ratioP1;P1;durP2;ratioP2;P2;SDS_P1;SDS_P2;PMS_P1;PMS_P2;Temp;Humidity;BMP_temperature;BMP_pressure;BME280_temperature;BME280_humidity;BME280_pressure;Samples;Min_cycle;Max_cycle;Signal;HPM_P1;HPM_P2
2022/05/22 00:01:28;;;;;;;;;;;;;;;8.64;100.00;99839.94;6067732;23;19925;-93
2022/05/22 00:03:56;;;;;;;;;;;;;;;8.64;100.00;99839.94;6078857;23;19917;-87
2022/05/22 00:09:36;;;;;;;;;;;;;;;8.57;100.00;99838.41;6219773;23;19982;-92
2022/05/22 00:12:28;;;;;;;;;;;;;;;8.61;100.00;99837.41;6216642;23;19916;-92
2022/05/22 00:15:15;;;;;;;;;;;;;;;8.54;100.00;99839.38;6216176;23;19919;-85
2022/05/22 00:17:48;;;;;;;;;;;;;;;8.50;100.00;99835.13;6215212;23;19912;-91
2022/05/22 00:20:13;;;;;;;;;;;;;;;8.52;100.00;99836.81;6189399;23;19982;-87
2022/05/22 00:22:41;;;;;;;;;;;;;;;8.62;100.00;99828.56;6188574;23;19970;-91
2022/05/22 00:25:37;;;;;;;;;;;;;;;;;;;;;
2022/05/22 00:28:05;;;;;;;;;;;;;;;8.47;100.00;99825.53;6216373;23;19960;-90
2022/05/22 00:30:37;;;;;;;;;;;;;;;8.43;100.00;99823.00;6183165;23;19916;-91
2022/05/22 00:33:05;;;;;;;;;;;;;;;8.39;100.00;99822.22;6158581;23;19920;-88
2022/05/22 00:35:36;;;;;;;;;;;;;;;8.33;100.00;99833.88;6162064;23;19912;-91
2022/05/22 00:38:12;;;;;;;;;;;;;;;8.37;100.00;99832.84;6186362;23;19916;-93
2022/05/22 00:40:40;;;;;;;;;;;;;;;8.39;100.00;99826.66;6185220;23;20264;-88
2022/05/22 00:43:07;;;;;;;;;;;;;;;8.34;100.00;99830.34;6161440;23;19918;-89
2022/05/22 00:45:33;;;;;;;;;;;;;;;8.31;100.00;99826.91;6185260;23;19983;-89
2022/05/22 00:48:14;;;;;;;;;;;;;;;8.29;100.00;99828.75;6187265;23;19912;-89
2022/05/22 00:50:42;;;;;;;;;;;;;;;8.33;100.00;99825.94;6185031;23;19999;-88
2022/05/22 00:53:40;;;;;;;;;;;;;;;;;;;;;
2022/05/22 00:56:37;;;;;;;;;;;;;;;;;;;;;
2022/05/22 00:59:09;;;;;;;;;;;;;;;8.24;100.00;99820.97;6205875;23;20036;-90
2022/05/22 01:01:35;;;;;;;;;;;;;;;8.09;100.00;99824.09;6218683;23;20332;-84
2022/05/22 01:04:02;;;;;;;;;;;;;;;8.19;100.00;99821.13;6215981;23;19916;-89
2022/05/22 01:06:29;;;;;;;;;;;;;;;8.08;100.00;99817.97;6190319;23;19912;-86
2022/05/22 01:08:54;;;;;;;;;;;;;;;8.02;99.36;99810.25;6215334;23;20248;-90
2022/05/22 01:11:31;;;;;;;;;;;;;;;8.20;100.00;99808.81;6217785;23;19915;-89
2022/05/22 01:14:03;;;;;;;;;;;;;;;8.03;100.00;99796.16;6218468;23;19911;-90
2022/05/22 01:16:32;;;;;;;;;;;;;;;8.02;99.46;99798.81;6214702;23;19935;-92
2022/05/22 01:18:57;;;;;;;;;;;;;;;8.01;98.93;99787.41;6216690;23;19912;-91
2022/05/22 01:21:25;;;;;;;;;;;;;;;7.95;98.69;99784.97;6214355;23;19911;-91
2022/05/22 01:27:01;;;;;;;;;;;;;;;7.86;98.57;99793.19;6154376;23;19913;-88
2022/05/22 01:29:26;;;;;;;;;;;;;;;7.87;98.56;99794.91;6208288;23;19915;-88
2022/05/22 01:31:52;;;;;;;;;;;;;;;7.83;98.47;99791.50;6189087;23;20353;-89
2022/05/22 01:34:19;;;;;;;;;;;;;;;7.86;98.43;99791.38;6216374;23;19912;-90
2022/05/22 01:36:45;;;;;;;;;;;;;;;8.12;97.41;99790.56;6213087;23;20018;-88
2022/05/22 01:39:10;;;;;;;;;;;;;;;8.42;96.41;99779.88;6214182;23;19943;-90
2022/05/22 01:41:36;;;;;;;;;;;;;;;8.59;95.63;99789.06;6211494;23;19971;-87
2022/05/22 01:44:04;;;;;;;;;;;;;;;8.39;95.32;99777.34;6187185;23;19987;-87
2022/05/22 01:46:29;;;;;;;;;;;;;;;8.34;96.02;99780.16;6189057;23;19912;-89
2022/05/22 01:48:55;;;;;;;;;;;;;;;8.27;96.74;99783.91;6188535;23;20239;-88
2022/05/22 01:51:21;;;;;;;;;;;;;;;8.12;96.74;99780.00;6211535;23;19912;-88
2022/05/22 03:28:13;;;;;;;;;;;;;;;;;;;;;
2022/05/22 03:30:41;;;;;;;;;;;;;;;7.08;97.36;99711.16;6186850;23;20006;-87
2022/05/22 03:33:06;;;;;;;;;;;;;;;7.02;97.18;99703.44;6159653;23;19996;-86
2022/05/22 03:35:32;;;;;;;;;;;;;;;7.07;97.16;99709.44;6160518;23;20347;-89
2022/05/22 03:41:40;;;;;;;;;;;;;;;7.01;97.10;99701.69;6102392;23;19948;-90
2022/05/22 03:44:22;;;;;;;;;;;;;;;6.95;97.04;99701.03;6152724;23;19912;-89
2022/05/22 03:46:47;;;;;;;;;;;;;;;6.99;96.99;99695.63;6187008;23;20389;-90
2022/05/22 03:49:13;;;;;;;;;;;;;;;6.97;96.79;99697.41;6186443;23;19954;-90
2022/05/22 03:51:39;;;;;;;;;;;;;;;6.95;96.95;99696.63;6158570;23;19951;-89
2022/05/22 03:54:04;;;;;;;;;;;;;;;6.90;96.77;99693.25;6159788;23;20101;-89
2022/05/22 03:56:30;;;;;;;;;;;;;;;6.92;96.88;99683.53;6159943;23;19912;-90
2022/05/22 03:58:55;;;;;;;;;;;;;;;6.84;96.63;99677.63;6185436;23;19916;-85
2022/05/22 04:01:20;;;;;;;;;;;;;;;6.79;96.38;99671.63;6186519;23;19934;-85
2022/05/22 04:03:45;;;;;;;;;;;;;;;6.83;96.13;99673.25;6184551;23;19912;-87
2022/05/22 04:06:11;;;;;;;;;;;;;;;6.82;96.36;99672.41;6159759;23;19916;-85
2022/05/22 04:08:37;;;;;;;;;;;;;;;6.84;96.39;99672.38;6184402;23;20375;-86
2022/05/22 04:14:41;;;;;;;;;;;;;;;;;;;;;
2022/05/22 04:17:09;;;;;;;;;;;;;;;6.84;96.48;99677.63;6037984;23;19989;-88
2022/05/22 04:19:44;;;;;;;;;;;;;;;6.78;96.64;99680.44;6132293;23;19987;-89
2022/05/22 04:22:09;;;;;;;;;;;;;;;6.76;96.73;99677.84;6185600;23;19912;-88
2022/05/22 04:27:18;;;;;;;;;;;;;;;6.70;97.01;99673.63;6185841;23;20035;-86
2022/05/22 04:29:43;;;;;;;;;;;;;;;6.75;96.93;99667.34;6186430;23;19916;-89
2022/05/22 04:32:09;;;;;;;;;;;;;;;6.66;96.82;99664.09;6186092;23;19919;-86
2022/05/22 04:34:35;;;;;;;;;;;;;;;6.61;96.53;99668.63;6159886;23;19920;-89
2022/05/22 04:37:00;;;;;;;;;;;;;;;6.59;96.64;99675.72;6183240;23;19919;-84
2022/05/22 04:39:25;;;;;;;;;;;;;;;6.57;96.52;99674.03;6159519;23;19939;-84
2022/05/22 04:41:50;;;;;;;;;;;;;;;6.57;96.26;99676.66;6185580;23;19948;-85
2022/05/22 04:44:16;;;;;;;;;;;;;;;6.51;96.09;99673.28;6185570;23;19947;-84
2022/05/22 04:46:41;;;;;;;;;;;;;;;6.46;96.01;99672.56;6185764;23;19965;-88
2022/05/22 04:49:06;;;;;;;;;;;;;;;6.46;95.87;99674.31;6185599;23;20244;-88
2022/05/22 04:51:31;;;;;;;;;;;;;;;6.53;95.70;99670.63;6185182;23;20214;-88
2022/05/22 04:53:57;;;;;;;;;;;;;;;6.51;95.61;99669.78;6185447;23;19913;-87
2022/05/22 04:56:46;;;;;;;;;;;;;;;6.47;95.36;99655.00;6186276;23;19912;-91
2022/05/22 04:59:16;;;;;;;;;;;;;;;6.40;95.47;99669.22;6185578;23;19973;-90
2022/05/22 05:01:41;;;;;;;;;;;;;;;6.43;95.50;99671.75;6185941;23;19912;-93
2022/05/22 05:04:11;;;;;;;;;;;;;;;6.41;95.69;99671.81;6159981;23;19995;-90
2022/05/22 05:06:37;;;;;;;;;;;;;;;6.39;96.02;99675.41;6157815;23;19916;-88
2022/05/22 05:09:02;;;;;;;;;;;;;;;6.41;96.14;99678.84;6185276;23;20309;-87
2022/05/22 05:11:27;;;;;;;;;;;;;;;6.43;96.36;99684.94;6185431;23;19916;-89
2022/05/22 05:13:52;;;;;;;;;;;;;;;6.40;96.32;99679.75;6185940;23;19912;-89
2022/05/22 05:16:18;;;;;;;;;;;;;;;6.35;96.33;99688.66;6185383;23;19959;-87
2022/05/22 05:18:43;;;;;;;;;;;;;;;6.35;96.50;99691.28;6159064;23;19916;-87
2022/05/22 05:21:13;;;;;;;;;;;;;;;6.33;96.40;99694.84;6159188;23;19913;-84
2022/05/22 05:23:39;;;;;;;;;;;;;;;6.38;96.66;99687.69;6183587;23;20351;-85
2022/05/22 05:26:05;;;;;;;;;;;;;;;6.33;96.54;99694.84;6185121;23;19920;-86
2022/05/22 05:28:31;;;;;;;;;;;;;;;6.33;96.40;99695.72;6159345;23;20232;-85
2022/05/22 05:30:56;;;;;;;;;;;;;;;6.32;96.73;99696.63;6158912;23;19959;-85
2022/05/22 05:33:21;;;;;;;;;;;;;;;6.29;96.90;99696.69;6185135;23;19916;-86
2022/05/22 05:35:47;;;;;;;;;;;;;;;6.34;96.82;99701.84;6183610;23;19958;-86
2022/05/22 05:38:12;;;;;;;;;;;;;;;6.32;96.74;99712.41;6183830;23;19916;-86
2022/05/22 05:40:38;;;;;;;;;;;;;;;6.33;97.17;99702.75;6158902;23;20283;-86
2022/05/22 05:43:03;;;;;;;;;;;;;;;6.32;97.00;99704.50;6185030;23;19983;-85
2022/05/22 05:45:29;;;;;;;;;;;;;;;6.30;96.78;99706.34;6158817;23;19913;-85
2022/05/22 05:47:54;;;;;;;;;;;;;;;6.31;97.08;99705.41;6185127;23;19916;-86
2022/05/22 05:50:21;;;;;;;;;;;;;;;6.25;96.85;99708.19;6184952;23;20002;-87
2022/05/22 05:52:48;;;;;;;;;;;;;;;6.33;96.72;99711.50;6157086;23;19936;-86
2022/05/22 08:24:10;;;;;;;;;;;;;;;6.43;98.75;99593.69;6217104;23;19923;-91
2022/05/22 08:39:35;;;;;;;;;;;;;;;;;;;;;
2022/05/22 08:42:21;;;;;;;;;;;;;;;6.54;99.72;99583.69;6010323;23;19989;-92
2022/05/22 08:48:14;;;;;;;;;;;;;;;;;;;;;
2022/05/22 08:50:58;;;;;;;;;;;;;;;;;;;;;
2022/05/22 08:54:12;;;;;;;;;;;;;;;;;;;;;
2022/05/22 08:59:45;;;;;;;;;;;;;;;6.73;100.00;99562.94;6123517;23;19972;-89
2022/05/22 09:02:16;;;;;;;;;;;;;;;6.78;100.00;99568.09;6134582;23;19966;-90
2022/05/22 09:05:02;;;;;;;;;;;;;;;6.80;100.00;99565.41;6215522;23;19990;-89
2022/05/22 09:07:34;;;;;;;;;;;;;;;6.81;100.00;99559.19;6213153;23;19915;-92
2022/05/22 09:10:06;;;;;;;;;;;;;;;6.88;100.00;99556.34;6213717;23;19957;-90
2022/05/22 09:15:50;;;;;;;;;;;;;;;7.02;100.00;99549.75;6214260;23;19923;-90
2022/05/22 09:18:38;;;;;;;;;;;;;;;7.18;100.00;99539.59;6187923;23;20006;-90
2022/05/22 09:21:06;;;;;;;;;;;;;;;7.16;100.00;99538.78;6187500;23;19922;-89
2022/05/22 09:23:46;;;;;;;;;;;;;;;7.16;100.00;99544.91;6212568;23;19919;-90
2022/05/22 09:39:12;;;;;;;;;;;;;;;7.52;100.00;99504.19;6209114;23;19947;-88
2022/05/22 09:41:56;;;;;;;;;;;;;;;;;;;;;
2022/05/22 09:44:40;;;;;;;;;;;;;;;7.62;100.00;99489.75;6212775;23;20363;-90
2022/05/22 09:47:32;;;;;;;;;;;;;;;7.58;100.00;99483.75;6212884;23;19918;-89
2022/05/22 09:50:27;;;;;;;;;;;;;;;;;;;;;
2022/05/22 09:53:03;;;;;;;;;;;;;;;7.64;100.00;99478.25;6214014;23;20002;-89
2022/05/22 09:55:33;;;;;;;;;;;;;;;7.67;100.00;99473.78;6213815;23;20335;-88
2022/05/22 09:58:20;;;;;;;;;;;;;;;7.68;100.00;99468.44;6212340;23;20320;-88
2022/05/22 10:00:45;;;;;;;;;;;;;;;7.71;100.00;99468.34;6214223;23;20308;-88
2022/05/22 12:38:13;;;;;;;;;;;;;;;9.56;100.00;99312.91;6211215;23;20023;-91
2022/05/22 12:41:20;;;;;;;;;;;;;;;10.15;100.00;99304.84;6188018;23;20278;-90
2022/05/22 12:46:50;;;;;;;;;;;;;;;9.81;100.00;99304.69;6122892;23;19920;-90
2022/05/22 12:52:05;;;;;;;;;;;;;;;10.26;100.00;99291.94;6215146;22;20334;-88
2022/05/22 12:54:31;;;;;;;;;;;;;;;9.81;100.00;99304.69;6212771;23;19916;-88
2022/05/22 12:57:15;;;;;;;;;;;;;;;10.22;100.00;99300.94;6213124;23;20239;-88
2022/05/22 13:03:11;;;;;;;;;;;;;;;9.98;100.00;99309.16;6183360;23;19923;-88
2022/05/22 13:05:46;;;;;;;;;;;;;;;10.40;100.00;99306.31;6212462;23;19947;-88
2022/05/22 13:08:20;;;;;;;;;;;;;;;10.13;100.00;99311.97;6215588;23;20319;-89
2022/05/22 13:11:11;;;;;;;;;;;;;;;10.14;100.00;99314.56;6188663;23;19916;-88
2022/05/22 13:13:57;;;;;;;;;;;;;;;10.59;100.00;99299.16;6204816;22;19966;-87
2022/05/22 13:16:55;;;;;;;;;;;;;;;;;;;;;
2022/05/22 13:19:23;;;;;;;;;;;;;;;11.06;100.00;99295.00;6167808;23;19994;-85
2022/05/22 13:21:48;;;;;;;;;;;;;;;10.88;100.00;99299.44;6213714;23;20411;-87
2022/05/22 13:24:13;;;;;;;;;;;;;;;10.23;100.00;99305.31;6215238;23;19923;-84
2022/05/22 13:26:39;;;;;;;;;;;;;;;10.57;100.00;99294.88;6214152;23;19951;-87
2022/05/22 13:29:09;;;;;;;;;;;;;;;10.68;100.00;99296.03;6215168;23;19912;-85
2022/05/22 13:31:46;;;;;;;;;;;;;;;10.16;100.00;99301.25;6215078;23;20006;-85
2022/05/22 13:34:14;;;;;;;;;;;;;;;10.49;100.00;99287.31;6213438;23;19912;-83
2022/05/22 13:37:05;;;;;;;;;;;;;;;10.67;100.00;99280.22;6213530;23;20243;-85
2022/05/22 13:39:31;;;;;;;;;;;;;;;10.17;100.00;99289.75;6209270;23;19912;-83
2022/05/22 13:41:56;;;;;;;;;;;;;;;10.53;100.00;99283.59;6213668;23;20225;-84
2022/05/22 13:44:24;;;;;;;;;;;;;;;10.68;100.00;99281.94;6213306;23;19919;-84
2022/05/22 13:46:49;;;;;;;;;;;;;;;10.09;100.00;99283.97;6213510;23;20263;-85
2022/05/22 13:49:18;;;;;;;;;;;;;;;10.41;100.00;99273.59;6215285;23;19912;-83
2022/05/22 13:54:30;;;;;;;;;;;;;;;10.14;100.00;99276.66;6214596;23;19959;-83
2022/05/22 13:57:00;;;;;;;;;;;;;;;10.48;100.00;99267.03;6214457;23;19908;-83
2022/05/22 13:59:27;;;;;;;;;;;;;;;10.67;100.00;99261.66;6214882;23;19943;-84
2022/05/22 14:01:53;;;;;;;;;;;;;;;10.15;100.00;99252.75;6214658;23;20075;-84
2022/05/22 14:04:19;;;;;;;;;;;;;;;10.49;100.00;99243.13;6214853;23;19920;-84
2022/05/22 14:06:47;;;;;;;;;;;;;;;10.72;100.00;99223.41;6213338;23;19914;-83
2022/05/22 14:09:17;;;;;;;;;;;;;;;10.22;100.00;99223.31;6213365;23;19920;-83
2022/05/22 14:11:51;;;;;;;;;;;;;;;10.51;100.00;99233.34;6214704;23;19954;-82
2022/05/22 14:14:28;;;;;;;;;;;;;;;10.71;100.00;99228.78;6214697;23;19992;-84
2022/05/22 14:17:02;;;;;;;;;;;;;;;10.29;100.00;99216.78;6213751;23;19916;-83
2022/05/22 14:19:33;;;;;;;;;;;;;;;10.49;100.00;99194.59;6188262;23;19912;-84
2022/05/22 14:22:06;;;;;;;;;;;;;;;10.75;100.00;99176.47;6187062;23;19911;-83
2022/05/22 14:27:34;;;;;;;;;;;;;;;10.48;100.00;99148.72;6214731;23;19918;-84
2022/05/22 14:30:17;;;;;;;;;;;;;;;10.77;100.00;99137.50;6214880;23;20242;-84
2022/05/22 14:32:56;;;;;;;;;;;;;;;10.27;100.00;99153.28;6214832;23;19913;-84
2022/05/22 14:35:29;;;;;;;;;;;;;;;10.31;100.00;99170.75;6213279;23;19970;-84
2022/05/22 14:37:54;;;;;;;;;;;;;;;10.70;100.00;99172.28;6214690;23;19942;-85
2022/05/22 14:40:32;;;;;;;;;;;;;;;10.51;100.00;99153.88;6214665;23;20320;-85
2022/05/22 14:43:00;;;;;;;;;;;;;;;10.06;100.00;99131.44;6214434;23;19982;-85
2022/05/22 14:45:33;;;;;;;;;;;;;;;10.32;100.00;99138.09;6214589;23;19919;-85
2022/05/22 14:48:00;;;;;;;;;;;;;;;10.64;100.00;99175.28;6213137;23;19943;-83
2022/05/22 14:50:26;;;;;;;;;;;;;;;10.58;100.00;99186.19;6213033;23;19912;-83
2022/05/22 14:53:11;;;;;;;;;;;;;;;10.38;100.00;99178.41;6214737;23;19961;-83
2022/05/22 14:55:38;;;;;;;;;;;;;;;10.80;100.00;99161.19;6213587;23;19934;-83
2022/05/22 14:58:12;;;;;;;;;;;;;;;10.53;100.00;99156.44;6213092;23;19920;-83
2022/05/22 15:00:40;;;;;;;;;;;;;;;10.44;100.00;99162.22;6212944;23;19919;-83
2022/05/22 15:03:05;;;;;;;;;;;;;;;10.84;100.00;99168.03;6214526;23;19919;-83
2022/05/22 15:05:33;;;;;;;;;;;;;;;10.70;100.00;99166.97;6213073;23;19958;-86
2022/05/22 15:08:01;;;;;;;;;;;;;;;10.38;100.00;99170.47;6215238;23;19912;-85
2022/05/22 15:10:35;;;;;;;;;;;;;;;10.79;100.00;99156.84;6189559;23;19991;-84
2022/05/22 15:13:01;;;;;;;;;;;;;;;10.69;100.00;99133.47;6216456;23;19915;-84
2022/05/22 15:15:26;;;;;;;;;;;;;;;10.44;100.00;99114.53;6216478;23;19919;-84
2022/05/22 15:18:03;;;;;;;;;;;;;;;10.78;100.00;99110.06;6215103;23;19912;-83
2022/05/22 15:20:31;;;;;;;;;;;;;;;10.78;100.00;99102.13;6213250;23;20381;-84
2022/05/22 15:25:51;;;;;;;;;;;;;;;10.89;100.00;99074.06;6216604;23;19997;-83
2022/05/22 15:28:19;;;;;;;;;;;;;;;10.69;100.00;99064.59;6216353;23;19970;-84
2022/05/22 15:30:47;;;;;;;;;;;;;;;10.24;100.00;99044.91;6216310;23;19962;-86
2022/05/22 15:33:22;;;;;;;;;;;;;;;10.71;100.00;99019.47;6216307;23;19919;-86
2022/05/22 15:35:47;;;;;;;;;;;;;;;11.04;100.00;99024.66;6214863;23;19916;-84
2022/05/22 15:38:21;;;;;;;;;;;;;;;10.56;100.00;99063.53;6216381;23;19918;-85
2022/05/22 15:40:50;;;;;;;;;;;;;;;10.68;100.00;99080.56;6190081;23;20259;-84
2022/05/22 15:43:25;;;;;;;;;;;;;;;10.97;100.00;99092.22;6189681;23;19915;-86
2022/05/22 15:46:12;;;;;;;;;;;;;;;10.53;100.00;99087.56;6216136;23;20010;-87
2022/05/22 15:51:33;;;;;;;;;;;;;;;11.01;100.00;99080.50;6214629;23;19927;-87
2022/05/22 15:53:59;;;;;;;;;;;;;;;10.68;100.00;99084.06;6215011;23;19919;-86
2022/05/22 15:56:25;;;;;;;;;;;;;;;10.62;100.00;99086.19;6216192;23;20251;-86
2022/05/22 15:58:51;;;;;;;;;;;;;;;10.97;100.00;99084.25;6216268;23;19947;-86
2022/05/22 16:01:18;;;;;;;;;;;;;;;10.93;100.00;99079.22;6216399;23;20343;-87
2022/05/22 16:03:45;;;;;;;;;;;;;;;10.53;100.00;99088.41;6216156;23;20120;-87
2022/05/22 16:06:14;;;;;;;;;;;;;;;10.93;100.00;99088.03;6214476;23;19974;-87
2022/05/22 16:08:42;;;;;;;;;;;;;;;11.05;100.00;99087.34;6215956;23;19916;-88
2022/05/22 16:11:07;;;;;;;;;;;;;;;10.51;100.00;99095.59;6216068;23;19916;-85
2022/05/22 16:13:33;;;;;;;;;;;;;;;10.86;100.00;99086.66;6189192;23;20172;-86
2022/05/22 16:15:59;;;;;;;;;;;;;;;11.13;100.00;99086.06;6214682;23;19916;-85
2022/05/22 16:18:30;;;;;;;;;;;;;;;10.69;100.00;99083.16;6214774;23;20374;-87
2022/05/22 16:20:55;;;;;;;;;;;;;;;10.92;100.00;99088.97;6213878;23;20251;-86
2022/05/22 16:23:23;;;;;;;;;;;;;;;11.17;100.00;99082.28;6214711;23;19912;-87
2022/05/22 16:25:48;;;;;;;;;;;;;;;10.69;100.00;99083.16;6216066;23;19912;-86
2022/05/22 16:28:13;;;;;;;;;;;;;;;11.05;100.00;99079.38;6215842;23;19912;-86
2022/05/22 16:30:39;;;;;;;;;;;;;;;11.26;100.00;99066.72;6215399;23;19970;-85
2022/05/22 16:33:04;;;;;;;;;;;;;;;10.72;100.00;99051.19;6189719;23;20213;-87
2022/05/22 16:35:30;;;;;;;;;;;;;;;11.08;100.00;99044.75;6213965;23;19908;-83
2022/05/22 16:37:55;;;;;;;;;;;;;;;11.25;100.00;99041.16;6215708;23;20320;-84
2022/05/22 16:40:21;;;;;;;;;;;;;;;10.85;100.00;99023.97;6215764;23;19915;-83
2022/05/22 16:42:47;;;;;;;;;;;;;;;11.15;100.00;99013.44;6215458;23;19935;-83
2022/05/22 16:45:13;;;;;;;;;;;;;;;11.34;100.00;98999.13;6214178;23;19912;-83
2022/05/22 16:53:29;;;;;;;;;;;;;;;11.06;100.00;98993.63;6124284;23;19913;-85
2022/05/22 16:55:56;;;;;;;;;;;;;;;10.99;100.00;98997.56;6123365;23;19913;-83
2022/05/22 16:58:24;;;;;;;;;;;;;;;11.32;100.00;99009.81;6166660;23;19918;-84
2022/05/22 17:00:51;;;;;;;;;;;;;;;11.05;100.00;99029.00;6215652;23;20267;-85
2022/05/22 17:03:23;;;;;;;;;;;;;;;11.07;100.00;99037.75;6215303;23;19912;-86
2022/05/22 17:05:51;;;;;;;;;;;;;;;11.35;100.00;99038.81;6213663;23;20010;-83
2022/05/22 17:08:25;;;;;;;;;;;;;;;10.99;100.00;99037.34;6215366;23;20286;-86
2022/05/22 17:10:51;;;;;;;;;;;;;;;11.13;100.00;99038.34;6215941;23;20343;-84
2022/05/22 17:13:17;;;;;;;;;;;;;;;11.38;100.00;99049.25;6188658;23;19915;-84
2022/05/22 17:15:42;;;;;;;;;;;;;;;10.94;100.00;99042.03;6215351;23;19912;-85
2022/05/22 17:18:07;;;;;;;;;;;;;;;11.17;100.00;99030.13;6215033;23;19911;-86
2022/05/22 17:20:33;;;;;;;;;;;;;;;11.36;100.00;99018.44;6213980;23;19924;-84
2022/05/22 17:22:59;;;;;;;;;;;;;;;10.92;100.00;99012.09;6215270;23;19940;-87
2022/05/22 17:25:30;;;;;;;;;;;;;;;11.64;100.00;99017.69;6188993;23;20328;-86
2022/05/22 17:27:56;;;;;;;;;;;;;;;11.69;100.00;99007.63;6213863;23;19995;-86
2022/05/22 17:30:27;;;;;;;;;;;;;;;11.14;100.00;99013.53;6214843;23;19911;-87
2022/05/22 17:32:53;;;;;;;;;;;;;;;11.52;100.00;98998.03;6215244;23;19935;-89
2022/05/22 17:35:27;;;;;;;;;;;;;;;11.61;100.00;98999.28;6212309;23;20332;-86
2022/05/22 17:38:18;;;;;;;;;;;;;;;11.24;100.00;98993.50;6214813;23;19912;-86
2022/05/22 17:40:45;;;;;;;;;;;;;;;11.62;100.00;99006.31;6213573;23;19927;-86
2022/05/22 17:43:12;;;;;;;;;;;;;;;11.47;100.00;99008.03;6214900;23;19936;-86
2022/05/22 17:45:37;;;;;;;;;;;;;;;11.38;100.00;99000.66;6214726;23;19931;-86
2022/05/22 17:48:06;;;;;;;;;;;;;;;11.68;100.00;99003.28;6215122;23;19912;-86
2022/05/22 17:50:38;;;;;;;;;;;;;;;11.38;100.00;98992.69;6213547;23;19912;-86
2022/05/22 17:53:06;;;;;;;;;;;;;;;11.50;100.00;98985.81;6215602;23;19951;-86
2022/05/22 17:55:32;;;;;;;;;;;;;;;11.78;100.00;98975.25;6213217;23;19912;-86
2022/05/22 17:57:57;;;;;;;;;;;;;;;11.25;100.00;98982.81;6214626;23;19912;-88
2022/05/22 18:00:32;;;;;;;;;;;;;;;11.60;100.00;98986.97;6214704;23;20006;-86
2022/05/22 18:02:57;;;;;;;;;;;;;;;11.78;100.00;98980.53;6213436;23;20340;-89
2022/05/22 18:05:22;;;;;;;;;;;;;;;11.29;100.00;98994.06;6213480;23;19919;-87
2022/05/22 18:08:10;;;;;;;;;;;;;;;11.70;100.00;98993.44;6188473;23;19912;-87
2022/05/22 18:16:50;;;;;;;;;;;;;;;11.85;100.00;98988.13;6214725;23;20402;-86
2022/05/22 18:19:22;;;;;;;;;;;;;;;11.30;100.00;98995.78;6178610;23;19912;-85
2022/05/22 18:21:48;;;;;;;;;;;;;;;11.69;100.00;99004.13;6213318;23;19920;-85
2022/05/22 18:27:05;;;;;;;;;;;;;;;11.41;100.00;98995.19;6214737;23;19919;-85
2022/05/22 18:29:32;;;;;;;;;;;;;;;13.25;100.00;98979.28;6214500;23;19912;-87
2022/05/22 18:31:57;;;;;;;;;;;;;;;12.67;100.00;98991.94;6214148;23;20324;-84
